sensor_id;sensor_type;location;lat;lon;timestamp;P1;durP1;ratioP1;P2;durP2;ratioP2
83232;SDS011;73119;42.642;23.332;2024-02-21T00:02:23;4.50;;;3.55;;
83232;SDS011;73119;42.642;23.332;2024-02-21T00:04:49;5.25;;;2.78;;
83232;SDS011;73119;42.642;23.332;2024-02-21T00:07:15;4.35;;;3.25;;
83232;SDS011;73119;42.642;23.332;2024-02-21T00:09:41;4.50;;;2.70;;
83232;SDS011;73119;42.642;23.332;2024-02-21T00:12:08;5.03;;;3.10;;
83232;SDS011;73119;42.642;23.332;2024-02-21T00:14:34;4.35;;;3.15;;
83232;SDS011;73119;42.642;23.332;2024-02-21T00:17:00;4.63;;;2.72;;
83232;SDS011;73119;42.642;23.332;2024-02-21T00:19:26;3.92;;;2.17;;
83232;SDS011;73119;42.642;23.332;2024-02-21T00:21:52;3.35;;;2.55;;
83232;SDS011;73119;42.642;23.332;2024-02-21T00:24:18;5.88;;;2.88;;
83232;SDS011;73119;42.642;23.332;2024-02-21T00:26:44;2.97;;;2.05;;
83232;SDS011;73119;42.642;23.332;2024-02-21T00:29:10;4.63;;;3.10;;
83232;SDS011;73119;42.642;23.332;2024-02-21T00:31:36;4.65;;;3.30;;
83232;SDS011;73119;42.642;23.332;2024-02-21T00:34:02;4.72;;;2.65;;
83232;SDS011;73119;42.642;23.332;2024-02-21T00:36:28;3.78;;;3.40;;
83232;SDS011;73119;42.642;23.332;2024-02-21T00:38:54;5.43;;;3.10;;
83232;SDS011;73119;42.642;23.332;2024-02-21T00:41:20;5.10;;;2.70;;
83232;SDS011;73119;42.642;23.332;2024-02-21T00:43:46;4.55;;;3.03;;
83232;SDS011;73119;42.642;23.332;2024-02-21T00:46:13;5.32;;;3.40;;
83232;SDS011;73119;42.642;23.332;2024-02-21T00:48:39;4.97;;;2.95;;
83232;SDS011;73119;42.642;23.332;2024-02-21T00:51:06;6.53;;;3.35;;
83232;SDS011;73119;42.642;23.332;2024-02-21T00:53:32;5.22;;;2.75;;
83232;SDS011;73119;42.642;23.332;2024-02-21T00:55:58;4.45;;;2.80;;
83232;SDS011;73119;42.642;23.332;2024-02-21T00:58:24;3.90;;;2.55;;
83232;SDS011;73119;42.642;23.332;2024-02-21T01:00:50;3.80;;;3.03;;
83232;SDS011;73119;42.642;23.332;2024-02-21T01:03:16;3.75;;;3.13;;
83232;SDS011;73119;42.642;23.332;2024-02-21T01:05:42;3.67;;;3.28;;
83232;SDS011;73119;42.642;23.332;2024-02-21T01:08:08;4.03;;;3.00;;
83232;SDS011;73119;42.642;23.332;2024-02-21T01:10:34;5.13;;;2.80;;
83232;SDS011;73119;42.642;23.332;2024-02-21T01:13:00;5.40;;;3.00;;
83232;SDS011;73119;42.642;23.332;2024-02-21T01:15:26;4.15;;;3.22;;
83232;SDS011;73119;42.642;23.332;2024-02-21T01:17:52;4.28;;;3.35;;
83232;SDS011;73119;42.642;23.332;2024-02-21T01:20:20;5.03;;;3.33;;
83232;SDS011;73119;42.642;23.332;2024-02-21T01:22:46;5.85;;;2.83;;
83232;SDS011;73119;42.642;23.332;2024-02-21T01:25:12;4.63;;;3.58;;
83232;SDS011;73119;42.642;23.332;2024-02-21T01:27:38;4.65;;;3.10;;
83232;SDS011;73119;42.642;23.332;2024-02-21T01:30:04;5.25;;;2.85;;
83232;SDS011;73119;42.642;23.332;2024-02-21T01:32:33;4.00;;;3.13;;
83232;SDS011;73119;42.642;23.332;2024-02-21T01:34:59;5.75;;;3.08;;
83232;SDS011;73119;42.642;23.332;2024-02-21T01:37:25;4.15;;;3.08;;
83232;SDS011;73119;42.642;23.332;2024-02-21T01:39:51;5.15;;;3.22;;
83232;SDS011;73119;42.642;23.332;2024-02-21T01:42:17;5.22;;;3.78;;
83232;SDS011;73119;42.642;23.332;2024-02-21T01:44:43;5.22;;;2.88;;
83232;SDS011;73119;42.642;23.332;2024-02-21T01:47:10;5.32;;;3.63;;
83232;SDS011;73119;42.642;23.332;2024-02-21T01:49:38;5.95;;;3.20;;
83232;SDS011;73119;42.642;23.332;2024-02-21T01:52:04;6.88;;;2.83;;
83232;SDS011;73119;42.642;23.332;2024-02-21T01:54:31;5.63;;;3.50;;
83232;SDS011;73119;42.642;23.332;2024-02-21T01:56:57;3.97;;;2.42;;
83232;SDS011;73119;42.642;23.332;2024-02-21T01:59:23;6.38;;;3.30;;
83232;SDS011;73119;42.642;23.332;2024-02-21T02:01:50;5.95;;;3.33;;
83232;SDS011;73119;42.642;23.332;2024-02-21T02:04:18;6.22;;;4.18;;
83232;SDS011;73119;42.642;23.332;2024-02-21T02:06:44;8.00;;;3.63;;
83232;SDS011;73119;42.642;23.332;2024-02-21T02:09:10;8.35;;;4.75;;
83232;SDS011;73119;42.642;23.332;2024-02-21T02:11:37;7.55;;;4.35;;
83232;SDS011;73119;42.642;23.332;2024-02-21T02:14:03;10.18;;;4.72;;
83232;SDS011;73119;42.642;23.332;2024-02-21T02:16:29;9.63;;;5.20;;
83232;SDS011;73119;42.642;23.332;2024-02-21T02:18:55;7.65;;;4.47;;
83232;SDS011;73119;42.642;23.332;2024-02-21T02:21:29;6.47;;;4.18;;
83232;SDS011;73119;42.642;23.332;2024-02-21T02:26:21;5.97;;;3.83;;
83232;SDS011;73119;42.642;23.332;2024-02-21T02:28:47;9.00;;;5.43;;
83232;SDS011;73119;42.642;23.332;2024-02-21T02:31:13;9.20;;;5.22;;
83232;SDS011;73119;42.642;23.332;2024-02-21T02:33:39;8.38;;;4.28;;
83232;SDS011;73119;42.642;23.332;2024-02-21T02:36:06;6.18;;;3.70;;
83232;SDS011;73119;42.642;23.332;2024-02-21T02:38:32;8.13;;;4.57;;
83232;SDS011;73119;42.642;23.332;2024-02-21T02:40:58;11.38;;;4.93;;
83232;SDS011;73119;42.642;23.332;2024-02-21T02:43:24;9.93;;;4.63;;
83232;SDS011;73119;42.642;23.332;2024-02-21T02:45:50;7.25;;;5.70;;
83232;SDS011;73119;42.642;23.332;2024-02-21T02:48:16;7.53;;;4.88;;
83232;SDS011;73119;42.642;23.332;2024-02-21T02:50:42;9.18;;;6.10;;
83232;SDS011;73119;42.642;23.332;2024-02-21T02:53:08;8.73;;;4.90;;
83232;SDS011;73119;42.642;23.332;2024-02-21T02:55:34;11.13;;;4.80;;
83232;SDS011;73119;42.642;23.332;2024-02-21T02:58:00;7.53;;;4.75;;
83232;SDS011;73119;42.642;23.332;2024-02-21T03:00:26;8.27;;;4.75;;
83232;SDS011;73119;42.642;23.332;2024-02-21T03:02:52;7.55;;;4.93;;
83232;SDS011;73119;42.642;23.332;2024-02-21T03:05:19;8.73;;;5.32;;
83232;SDS011;73119;42.642;23.332;2024-02-21T03:07:46;10.77;;;4.32;;
83232;SDS011;73119;42.642;23.332;2024-02-21T03:10:12;7.20;;;4.25;;
83232;SDS011;73119;42.642;23.332;2024-02-21T03:12:38;9.77;;;4.80;;
83232;SDS011;73119;42.642;23.332;2024-02-21T03:15:05;8.70;;;5.15;;
83232;SDS011;73119;42.642;23.332;2024-02-21T03:17:31;10.23;;;4.97;;
83232;SDS011;73119;42.642;23.332;2024-02-21T03:19:59;9.73;;;5.47;;
83232;SDS011;73119;42.642;23.332;2024-02-21T03:22:25;9.10;;;5.68;;
83232;SDS011;73119;42.642;23.332;2024-02-21T03:24:51;7.60;;;4.88;;
83232;SDS011;73119;42.642;23.332;2024-02-21T03:27:17;9.57;;;5.43;;
83232;SDS011;73119;42.642;23.332;2024-02-21T03:29:43;7.93;;;4.70;;
83232;SDS011;73119;42.642;23.332;2024-02-21T03:32:09;8.68;;;5.30;;
83232;SDS011;73119;42.642;23.332;2024-02-21T03:34:35;10.00;;;5.90;;
83232;SDS011;73119;42.642;23.332;2024-02-21T03:37:01;6.50;;;4.60;;
83232;SDS011;73119;42.642;23.332;2024-02-21T03:39:30;7.00;;;4.25;;
83232;SDS011;73119;42.642;23.332;2024-02-21T03:41:57;6.93;;;4.95;;
83232;SDS011;73119;42.642;23.332;2024-02-21T03:46:51;7.53;;;4.03;;
83232;SDS011;73119;42.642;23.332;2024-02-21T03:49:18;10.95;;;4.57;;
83232;SDS011;73119;42.642;23.332;2024-02-21T03:51:44;7.53;;;4.45;;
83232;SDS011;73119;42.642;23.332;2024-02-21T03:54:10;8.07;;;4.78;;
83232;SDS011;73119;42.642;23.332;2024-02-21T03:56:39;8.70;;;5.00;;
83232;SDS011;73119;42.642;23.332;2024-02-21T03:59:05;8.50;;;5.07;;
83232;SDS011;73119;42.642;23.332;2024-02-21T04:01:31;9.98;;;4.57;;
83232;SDS011;73119;42.642;23.332;2024-02-21T04:03:57;10.07;;;4.85;;
83232;SDS011;73119;42.642;23.332;2024-02-21T04:06:23;10.07;;;4.60;;
83232;SDS011;73119;42.642;23.332;2024-02-21T04:08:49;7.93;;;4.68;;
83232;SDS011;73119;42.642;23.332;2024-02-21T04:11:15;9.75;;;5.57;;
83232;SDS011;73119;42.642;23.332;2024-02-21T04:13:43;10.00;;;5.47;;
83232;SDS011;73119;42.642;23.332;2024-02-21T04:16:10;7.75;;;4.70;;
83232;SDS011;73119;42.642;23.332;2024-02-21T04:18:36;9.75;;;5.72;;
83232;SDS011;73119;42.642;23.332;2024-02-21T04:21:02;7.80;;;5.25;;
83232;SDS011;73119;42.642;23.332;2024-02-21T04:23:28;8.65;;;5.18;;
83232;SDS011;73119;42.642;23.332;2024-02-21T04:25:54;11.80;;;6.13;;
83232;SDS011;73119;42.642;23.332;2024-02-21T04:28:20;10.48;;;5.38;;
83232;SDS011;73119;42.642;23.332;2024-02-21T04:30:46;8.75;;;5.30;;
83232;SDS011;73119;42.642;23.332;2024-02-21T04:33:12;9.35;;;5.18;;
83232;SDS011;73119;42.642;23.332;2024-02-21T04:35:38;9.48;;;5.63;;
83232;SDS011;73119;42.642;23.332;2024-02-21T04:38:04;13.40;;;6.28;;
83232;SDS011;73119;42.642;23.332;2024-02-21T04:40:31;8.73;;;5.55;;
83232;SDS011;73119;42.642;23.332;2024-02-21T04:42:57;9.45;;;5.05;;
83232;SDS011;73119;42.642;23.332;2024-02-21T04:45:23;12.35;;;6.63;;
83232;SDS011;73119;42.642;23.332;2024-02-21T04:47:49;8.95;;;6.05;;
83232;SDS011;73119;42.642;23.332;2024-02-21T04:50:15;11.18;;;5.97;;
83232;SDS011;73119;42.642;23.332;2024-02-21T04:52:42;10.07;;;5.80;;
83232;SDS011;73119;42.642;23.332;2024-02-21T04:55:08;12.20;;;5.53;;
83232;SDS011;73119;42.642;23.332;2024-02-21T04:57:34;10.27;;;5.30;;
83232;SDS011;73119;42.642;23.332;2024-02-21T05:00:00;10.63;;;5.82;;
83232;SDS011;73119;42.642;23.332;2024-02-21T05:02:26;12.90;;;5.47;;
83232;SDS011;73119;42.642;23.332;2024-02-21T05:04:52;9.82;;;6.80;;
83232;SDS011;73119;42.642;23.332;2024-02-21T05:07:18;10.43;;;5.13;;
83232;SDS011;73119;42.642;23.332;2024-02-21T05:09:45;8.63;;;4.93;;
83232;SDS011;73119;42.642;23.332;2024-02-21T05:12:11;10.75;;;5.88;;
83232;SDS011;73119;42.642;23.332;2024-02-21T05:14:37;8.85;;;5.30;;
83232;SDS011;73119;42.642;23.332;2024-02-21T05:17:04;8.70;;;5.80;;
83232;SDS011;73119;42.642;23.332;2024-02-21T05:25:37;9.30;;;5.90;;
83232;SDS011;73119;42.642;23.332;2024-02-21T05:28:03;10.27;;;5.95;;
83232;SDS011;73119;42.642;23.332;2024-02-21T05:30:31;12.23;;;7.47;;
83232;SDS011;73119;42.642;23.332;2024-02-21T05:32:57;9.73;;;5.80;;
83232;SDS011;73119;42.642;23.332;2024-02-21T05:35:27;11.52;;;6.40;;
83232;SDS011;73119;42.642;23.332;2024-02-21T05:37:53;12.75;;;6.50;;
83232;SDS011;73119;42.642;23.332;2024-02-21T05:40:19;11.95;;;7.25;;
83232;SDS011;73119;42.642;23.332;2024-02-21T05:42:45;11.93;;;6.50;;
83232;SDS011;73119;42.642;23.332;2024-02-21T05:45:11;11.75;;;6.50;;
83232;SDS011;73119;42.642;23.332;2024-02-21T05:47:38;7.25;;;5.53;;
83232;SDS011;73119;42.642;23.332;2024-02-21T05:50:04;18.33;;;5.88;;
83232;SDS011;73119;42.642;23.332;2024-02-21T05:52:30;11.77;;;7.00;;
83232;SDS011;73119;42.642;23.332;2024-02-21T05:54:56;11.93;;;7.57;;
83232;SDS011;73119;42.642;23.332;2024-02-21T05:57:22;11.63;;;5.88;;
83232;SDS011;73119;42.642;23.332;2024-02-21T05:59:48;8.20;;;4.82;;
83232;SDS011;73119;42.642;23.332;2024-02-21T06:02:14;9.95;;;5.43;;
83232;SDS011;73119;42.642;23.332;2024-02-21T06:04:40;9.80;;;5.63;;
83232;SDS011;73119;42.642;23.332;2024-02-21T06:07:07;9.70;;;5.70;;
83232;SDS011;73119;42.642;23.332;2024-02-21T06:09:34;9.43;;;5.65;;
83232;SDS011;73119;42.642;23.332;2024-02-21T06:12:00;8.10;;;4.60;;
83232;SDS011;73119;42.642;23.332;2024-02-21T06:14:26;8.18;;;5.25;;
83232;SDS011;73119;42.642;23.332;2024-02-21T06:16:52;7.45;;;4.65;;
83232;SDS011;73119;42.642;23.332;2024-02-21T06:19:18;10.02;;;5.68;;
83232;SDS011;73119;42.642;23.332;2024-02-21T06:21:44;10.75;;;6.63;;
83232;SDS011;73119;42.642;23.332;2024-02-21T06:24:11;11.95;;;6.78;;
83232;SDS011;73119;42.642;23.332;2024-02-21T06:26:37;12.38;;;4.43;;
83232;SDS011;73119;42.642;23.332;2024-02-21T06:29:05;11.25;;;5.88;;
83232;SDS011;73119;42.642;23.332;2024-02-21T06:31:31;7.82;;;4.90;;
83232;SDS011;73119;42.642;23.332;2024-02-21T06:33:57;11.45;;;6.40;;
83232;SDS011;73119;42.642;23.332;2024-02-21T06:36:23;11.82;;;5.93;;
83232;SDS011;73119;42.642;23.332;2024-02-21T06:38:49;11.38;;;5.95;;
83232;SDS011;73119;42.642;23.332;2024-02-21T06:41:16;10.82;;;5.80;;
83232;SDS011;73119;42.642;23.332;2024-02-21T06:43:44;10.82;;;6.47;;
83232;SDS011;73119;42.642;23.332;2024-02-21T06:46:10;11.70;;;5.43;;
83232;SDS011;73119;42.642;23.332;2024-02-21T06:48:37;10.88;;;5.85;;
83232;SDS011;73119;42.642;23.332;2024-02-21T06:51:03;10.60;;;6.30;;
83232;SDS011;73119;42.642;23.332;2024-02-21T06:53:29;10.45;;;6.25;;
83232;SDS011;73119;42.642;23.332;2024-02-21T06:55:55;11.30;;;5.72;;
83232;SDS011;73119;42.642;23.332;2024-02-21T06:58:21;8.93;;;5.45;;
83232;SDS011;73119;42.642;23.332;2024-02-21T07:00:47;10.38;;;6.30;;
83232;SDS011;73119;42.642;23.332;2024-02-21T07:03:13;13.77;;;6.78;;
83232;SDS011;73119;42.642;23.332;2024-02-21T07:05:39;11.57;;;6.03;;
83232;SDS011;73119;42.642;23.332;2024-02-21T07:08:05;12.20;;;7.65;;
83232;SDS011;73119;42.642;23.332;2024-02-21T07:10:31;10.73;;;6.55;;
83232;SDS011;73119;42.642;23.332;2024-02-21T07:12:57;12.38;;;6.22;;
83232;SDS011;73119;42.642;23.332;2024-02-21T07:15:23;14.15;;;6.75;;
83232;SDS011;73119;42.642;23.332;2024-02-21T07:17:51;12.90;;;6.85;;
83232;SDS011;73119;42.642;23.332;2024-02-21T07:20:17;9.05;;;5.93;;
83232;SDS011;73119;42.642;23.332;2024-02-21T07:22:43;11.65;;;5.88;;
83232;SDS011;73119;42.642;23.332;2024-02-21T07:25:10;11.75;;;6.68;;
83232;SDS011;73119;42.642;23.332;2024-02-21T07:27:36;10.75;;;7.15;;
83232;SDS011;73119;42.642;23.332;2024-02-21T07:30:02;10.50;;;5.82;;
83232;SDS011;73119;42.642;23.332;2024-02-21T07:32:29;10.27;;;5.70;;
83232;SDS011;73119;42.642;23.332;2024-02-21T07:34:55;13.68;;;7.32;;
83232;SDS011;73119;42.642;23.332;2024-02-21T07:37:21;11.10;;;6.53;;
83232;SDS011;73119;42.642;23.332;2024-02-21T07:39:47;9.98;;;5.80;;
83232;SDS011;73119;42.642;23.332;2024-02-21T07:42:13;12.23;;;6.32;;
83232;SDS011;73119;42.642;23.332;2024-02-21T07:44:40;13.18;;;6.20;;
83232;SDS011;73119;42.642;23.332;2024-02-21T07:47:06;12.68;;;7.45;;
83232;SDS011;73119;42.642;23.332;2024-02-21T07:49:33;12.18;;;7.15;;
83232;SDS011;73119;42.642;23.332;2024-02-21T07:52:00;14.95;;;8.13;;
83232;SDS011;73119;42.642;23.332;2024-02-21T07:54:26;12.02;;;7.85;;
83232;SDS011;73119;42.642;23.332;2024-02-21T07:56:52;13.13;;;8.50;;
83232;SDS011;73119;42.642;23.332;2024-02-21T07:59:18;11.90;;;6.53;;
83232;SDS011;73119;42.642;23.332;2024-02-21T08:01:44;14.93;;;7.50;;
83232;SDS011;73119;42.642;23.332;2024-02-21T08:04:10;12.27;;;6.43;;
83232;SDS011;73119;42.642;23.332;2024-02-21T08:06:36;15.98;;;7.30;;
83232;SDS011;73119;42.642;23.332;2024-02-21T08:09:02;13.93;;;7.72;;
83232;SDS011;73119;42.642;23.332;2024-02-21T08:11:29;11.10;;;6.38;;
83232;SDS011;73119;42.642;23.332;2024-02-21T08:13:55;11.77;;;7.00;;
83232;SDS011;73119;42.642;23.332;2024-02-21T08:16:23;15.18;;;7.32;;
83232;SDS011;73119;42.642;23.332;2024-02-21T08:18:49;13.10;;;6.57;;
83232;SDS011;73119;42.642;23.332;2024-02-21T08:21:15;10.00;;;6.82;;
83232;SDS011;73119;42.642;23.332;2024-02-21T08:23:41;12.05;;;5.93;;
83232;SDS011;73119;42.642;23.332;2024-02-21T08:26:07;21.27;;;8.98;;
83232;SDS011;73119;42.642;23.332;2024-02-21T08:28:33;15.20;;;7.70;;
83232;SDS011;73119;42.642;23.332;2024-02-21T08:30:59;16.05;;;9.00;;
83232;SDS011;73119;42.642;23.332;2024-02-21T08:33:25;10.38;;;6.95;;
83232;SDS011;73119;42.642;23.332;2024-02-21T08:35:52;12.30;;;6.78;;
83232;SDS011;73119;42.642;23.332;2024-02-21T08:38:18;9.35;;;6.50;;
83232;SDS011;73119;42.642;23.332;2024-02-21T08:40:44;10.20;;;6.90;;
83232;SDS011;73119;42.642;23.332;2024-02-21T08:43:10;11.20;;;6.45;;
83232;SDS011;73119;42.642;23.332;2024-02-21T08:45:37;11.88;;;5.68;;
83232;SDS011;73119;42.642;23.332;2024-02-21T08:48:03;11.35;;;6.25;;
83232;SDS011;73119;42.642;23.332;2024-02-21T08:50:29;9.82;;;6.22;;
83232;SDS011;73119;42.642;23.332;2024-02-21T08:52:55;10.15;;;5.50;;
83232;SDS011;73119;42.642;23.332;2024-02-21T08:55:21;10.88;;;6.25;;
83232;SDS011;73119;42.642;23.332;2024-02-21T08:57:49;11.27;;;6.32;;
83232;SDS011;73119;42.642;23.332;2024-02-21T09:00:15;9.07;;;5.05;;
83232;SDS011;73119;42.642;23.332;2024-02-21T09:02:41;9.05;;;5.68;;
83232;SDS011;73119;42.642;23.332;2024-02-21T09:05:08;8.68;;;5.78;;
83232;SDS011;73119;42.642;23.332;2024-02-21T09:07:34;10.50;;;5.80;;
83232;SDS011;73119;42.642;23.332;2024-02-21T09:10:00;8.48;;;5.70;;
83232;SDS011;73119;42.642;23.332;2024-02-21T09:12:26;7.20;;;4.55;;
83232;SDS011;73119;42.642;23.332;2024-02-21T09:14:53;7.65;;;4.90;;
83232;SDS011;73119;42.642;23.332;2024-02-21T09:17:19;7.38;;;4.90;;
83232;SDS011;73119;42.642;23.332;2024-02-21T09:19:50;11.10;;;5.70;;
83232;SDS011;73119;42.642;23.332;2024-02-21T09:22:16;9.32;;;5.53;;
83232;SDS011;73119;42.642;23.332;2024-02-21T09:24:42;9.00;;;5.38;;
83232;SDS011;73119;42.642;23.332;2024-02-21T09:27:08;10.20;;;5.50;;
83232;SDS011;73119;42.642;23.332;2024-02-21T09:29:34;14.07;;;5.18;;
83232;SDS011;73119;42.642;23.332;2024-02-21T09:32:01;7.93;;;4.65;;
83232;SDS011;73119;42.642;23.332;2024-02-21T09:34:28;9.20;;;5.38;;
83232;SDS011;73119;42.642;23.332;2024-02-21T09:36:54;7.32;;;5.05;;
83232;SDS011;73119;42.642;23.332;2024-02-21T09:39:20;12.68;;;5.15;;
83232;SDS011;73119;42.642;23.332;2024-02-21T09:41:47;9.05;;;5.90;;
83232;SDS011;73119;42.642;23.332;2024-02-21T09:44:20;10.27;;;5.70;;
83232;SDS011;73119;42.642;23.332;2024-02-21T09:49:19;11.02;;;6.35;;
83232;SDS011;73119;42.642;23.332;2024-02-21T09:51:47;10.77;;;6.30;;
83232;SDS011;73119;42.642;23.332;2024-02-21T09:54:15;9.65;;;6.07;;
83232;SDS011;73119;42.642;23.332;2024-02-21T09:59:09;11.30;;;6.57;;
83232;SDS011;73119;42.642;23.332;2024-02-21T10:01:36;9.68;;;5.78;;
83232;SDS011;73119;42.642;23.332;2024-02-21T10:04:02;7.85;;;5.45;;
83232;SDS011;73119;42.642;23.332;2024-02-21T10:06:29;10.70;;;5.28;;
83232;SDS011;73119;42.642;23.332;2024-02-21T10:08:55;9.85;;;5.30;;
83232;SDS011;73119;42.642;23.332;2024-02-21T10:11:22;8.25;;;5.35;;
83232;SDS011;73119;42.642;23.332;2024-02-21T10:13:49;6.93;;;4.70;;
83232;SDS011;73119;42.642;23.332;2024-02-21T10:16:16;8.88;;;5.22;;
83232;SDS011;73119;42.642;23.332;2024-02-21T10:18:42;7.38;;;5.05;;
83232;SDS011;73119;42.642;23.332;2024-02-21T10:21:08;11.05;;;4.75;;
83232;SDS011;73119;42.642;23.332;2024-02-21T10:23:41;7.97;;;4.97;;
83232;SDS011;73119;42.642;23.332;2024-02-21T10:26:07;8.60;;;4.00;;
83232;SDS011;73119;42.642;23.332;2024-02-21T10:28:33;7.15;;;4.72;;
83232;SDS011;73119;42.642;23.332;2024-02-21T10:30:59;5.43;;;3.58;;
83232;SDS011;73119;42.642;23.332;2024-02-21T10:33:25;7.80;;;4.45;;
83232;SDS011;73119;42.642;23.332;2024-02-21T10:35:53;15.48;;;5.03;;
83232;SDS011;73119;42.642;23.332;2024-02-21T10:38:19;6.05;;;4.32;;
83232;SDS011;73119;42.642;23.332;2024-02-21T10:40:46;9.50;;;6.75;;
83232;SDS011;73119;42.642;23.332;2024-02-21T10:43:13;9.80;;;4.85;;
83232;SDS011;73119;42.642;23.332;2024-02-21T10:45:39;10.40;;;6.18;;
83232;SDS011;73119;42.642;23.332;2024-02-21T10:55:56;6.88;;;3.75;;
83232;SDS011;73119;42.642;23.332;2024-02-21T10:58:22;8.75;;;5.53;;
83232;SDS011;73119;42.642;23.332;2024-02-21T11:00:50;13.63;;;5.10;;
83232;SDS011;73119;42.642;23.332;2024-02-21T11:03:17;6.40;;;4.18;;
83232;SDS011;73119;42.642;23.332;2024-02-21T11:05:44;6.25;;;4.32;;
83232;SDS011;73119;42.642;23.332;2024-02-21T11:08:11;8.90;;;3.88;;
83232;SDS011;73119;42.642;23.332;2024-02-21T11:10:39;9.43;;;3.80;;
83232;SDS011;73119;42.642;23.332;2024-02-21T11:13:06;5.28;;;3.63;;
83232;SDS011;73119;42.642;23.332;2024-02-21T11:15:33;5.93;;;3.83;;
83232;SDS011;73119;42.642;23.332;2024-02-21T11:17:59;6.68;;;3.65;;
83232;SDS011;73119;42.642;23.332;2024-02-21T11:20:35;5.50;;;3.28;;
83232;SDS011;73119;42.642;23.332;2024-02-21T11:23:02;5.55;;;3.13;;
83232;SDS011;73119;42.642;23.332;2024-02-21T11:25:28;5.18;;;3.05;;
83232;SDS011;73119;42.642;23.332;2024-02-21T11:28:02;4.70;;;3.03;;
83232;SDS011;73119;42.642;23.332;2024-02-21T11:30:32;4.55;;;2.97;;
83232;SDS011;73119;42.642;23.332;2024-02-21T11:33:01;6.88;;;3.28;;
83232;SDS011;73119;42.642;23.332;2024-02-21T11:35:30;6.53;;;2.88;;
83232;SDS011;73119;42.642;23.332;2024-02-21T11:38:07;5.07;;;3.03;;
83232;SDS011;73119;42.642;23.332;2024-02-21T11:40:34;5.68;;;3.35;;
83232;SDS011;73119;42.642;23.332;2024-02-21T11:43:00;5.72;;;2.83;;
83232;SDS011;73119;42.642;23.332;2024-02-21T11:45:26;4.75;;;2.88;;
83232;SDS011;73119;42.642;23.332;2024-02-21T11:47:53;8.65;;;4.72;;
83232;SDS011;73119;42.642;23.332;2024-02-21T11:50:19;5.72;;;3.95;;
83232;SDS011;73119;42.642;23.332;2024-02-21T11:52:45;5.85;;;3.55;;
83232;SDS011;73119;42.642;23.332;2024-02-21T11:55:11;6.20;;;3.35;;
83232;SDS011;73119;42.642;23.332;2024-02-21T11:57:37;9.68;;;4.28;;
83232;SDS011;73119;42.642;23.332;2024-02-21T12:00:26;9.32;;;5.22;;
83232;SDS011;73119;42.642;23.332;2024-02-21T12:02:52;5.60;;;2.92;;
83232;SDS011;73119;42.642;23.332;2024-02-21T12:05:20;7.47;;;3.67;;
83232;SDS011;73119;42.642;23.332;2024-02-21T12:07:46;4.55;;;3.45;;
83232;SDS011;73119;42.642;23.332;2024-02-21T12:10:13;6.15;;;3.65;;
83232;SDS011;73119;42.642;23.332;2024-02-21T12:12:39;4.90;;;2.78;;
83232;SDS011;73119;42.642;23.332;2024-02-21T12:15:06;5.88;;;3.55;;
83232;SDS011;73119;42.642;23.332;2024-02-21T12:17:33;5.32;;;3.25;;
83232;SDS011;73119;42.642;23.332;2024-02-21T12:20:00;6.45;;;3.42;;
83232;SDS011;73119;42.642;23.332;2024-02-21T12:22:26;5.80;;;3.70;;
83232;SDS011;73119;42.642;23.332;2024-02-21T12:24:53;8.13;;;5.10;;
83232;SDS011;73119;42.642;23.332;2024-02-21T12:27:19;4.50;;;3.10;;
83232;SDS011;73119;42.642;23.332;2024-02-21T12:29:47;4.80;;;3.22;;
83232;SDS011;73119;42.642;23.332;2024-02-21T12:32:13;5.93;;;3.15;;
83232;SDS011;73119;42.642;23.332;2024-02-21T12:34:40;6.90;;;3.70;;
83232;SDS011;73119;42.642;23.332;2024-02-21T12:37:06;5.60;;;3.60;;
83232;SDS011;73119;42.642;23.332;2024-02-21T12:39:32;8.55;;;3.40;;
83232;SDS011;73119;42.642;23.332;2024-02-21T12:41:58;7.13;;;3.15;;
83232;SDS011;73119;42.642;23.332;2024-02-21T12:44:24;6.68;;;3.88;;
83232;SDS011;73119;42.642;23.332;2024-02-21T12:46:50;5.53;;;2.80;;
83232;SDS011;73119;42.642;23.332;2024-02-21T12:49:18;5.00;;;3.08;;
83232;SDS011;73119;42.642;23.332;2024-02-21T12:51:44;7.05;;;3.63;;
83232;SDS011;73119;42.642;23.332;2024-02-21T12:54:13;4.80;;;3.17;;
83232;SDS011;73119;42.642;23.332;2024-02-21T12:56:39;5.57;;;2.60;;
83232;SDS011;73119;42.642;23.332;2024-02-21T12:59:06;6.45;;;3.55;;
83232;SDS011;73119;42.642;23.332;2024-02-21T13:01:36;4.88;;;3.28;;
83232;SDS011;73119;42.642;23.332;2024-02-21T13:04:02;5.05;;;3.33;;
83232;SDS011;73119;42.642;23.332;2024-02-21T13:06:28;6.53;;;3.83;;
83232;SDS011;73119;42.642;23.332;2024-02-21T13:08:55;4.13;;;3.03;;
83232;SDS011;73119;42.642;23.332;2024-02-21T13:11:21;5.20;;;3.85;;
83232;SDS011;73119;42.642;23.332;2024-02-21T13:13:48;4.53;;;2.88;;
83232;SDS011;73119;42.642;23.332;2024-02-21T13:16:14;3.92;;;2.97;;
83232;SDS011;73119;42.642;23.332;2024-02-21T13:18:40;4.30;;;3.13;;
83232;SDS011;73119;42.642;23.332;2024-02-21T13:21:08;5.32;;;2.55;;
83232;SDS011;73119;42.642;23.332;2024-02-21T13:23:34;5.82;;;3.60;;
83232;SDS011;73119;42.642;23.332;2024-02-21T13:26:00;6.10;;;3.13;;
83232;SDS011;73119;42.642;23.332;2024-02-21T13:28:26;6.07;;;3.90;;
83232;SDS011;73119;42.642;23.332;2024-02-21T13:30:52;5.65;;;3.67;;
83232;SDS011;73119;42.642;23.332;2024-02-21T13:33:18;9.80;;;4.10;;
83232;SDS011;73119;42.642;23.332;2024-02-21T13:35:44;6.57;;;3.92;;
83232;SDS011;73119;42.642;23.332;2024-02-21T13:38:10;6.05;;;4.35;;
83232;SDS011;73119;42.642;23.332;2024-02-21T13:40:37;7.57;;;4.88;;
83232;SDS011;73119;42.642;23.332;2024-02-21T13:43:03;9.77;;;4.30;;
83232;SDS011;73119;42.642;23.332;2024-02-21T13:45:29;7.60;;;4.38;;
83232;SDS011;73119;42.642;23.332;2024-02-21T13:47:56;7.38;;;4.18;;
83232;SDS011;73119;42.642;23.332;2024-02-21T13:50:23;8.70;;;4.80;;
83232;SDS011;73119;42.642;23.332;2024-02-21T13:52:52;7.80;;;4.03;;
83232;SDS011;73119;42.642;23.332;2024-02-21T13:55:18;6.57;;;4.38;;
83232;SDS011;73119;42.642;23.332;2024-02-21T13:57:47;9.68;;;3.78;;
83232;SDS011;73119;42.642;23.332;2024-02-21T14:00:13;4.70;;;3.72;;
83232;SDS011;73119;42.642;23.332;2024-02-21T14:02:39;5.53;;;4.00;;
83232;SDS011;73119;42.642;23.332;2024-02-21T14:05:05;6.45;;;4.32;;
83232;SDS011;73119;42.642;23.332;2024-02-21T14:07:32;6.35;;;3.67;;
83232;SDS011;73119;42.642;23.332;2024-02-21T14:09:58;7.70;;;4.13;;
83232;SDS011;73119;42.642;23.332;2024-02-21T14:12:24;8.63;;;4.70;;
83232;SDS011;73119;42.642;23.332;2024-02-21T14:14:50;9.27;;;5.15;;
83232;SDS011;73119;42.642;23.332;2024-02-21T14:17:17;6.25;;;4.00;;
83232;SDS011;73119;42.642;23.332;2024-02-21T14:19:43;5.78;;;4.22;;
83232;SDS011;73119;42.642;23.332;2024-02-21T14:22:09;6.13;;;4.15;;
83232;SDS011;73119;42.642;23.332;2024-02-21T14:24:36;5.45;;;4.05;;
83232;SDS011;73119;42.642;23.332;2024-02-21T14:27:03;7.03;;;4.07;;
83232;SDS011;73119;42.642;23.332;2024-02-21T14:29:29;7.95;;;4.95;;
83232;SDS011;73119;42.642;23.332;2024-02-21T14:31:55;6.00;;;4.13;;
83232;SDS011;73119;42.642;23.332;2024-02-21T14:34:21;7.03;;;3.60;;
83232;SDS011;73119;42.642;23.332;2024-02-21T14:36:47;5.88;;;3.75;;
83232;SDS011;73119;42.642;23.332;2024-02-21T14:39:13;5.60;;;4.00;;
83232;SDS011;73119;42.642;23.332;2024-02-21T14:41:39;7.10;;;4.60;;
83232;SDS011;73119;42.642;23.332;2024-02-21T14:44:05;6.85;;;3.92;;
83232;SDS011;73119;42.642;23.332;2024-02-21T14:46:34;8.85;;;4.25;;
83232;SDS011;73119;42.642;23.332;2024-02-21T14:49:00;5.85;;;3.55;;
83232;SDS011;73119;42.642;23.332;2024-02-21T14:51:27;7.22;;;4.40;;